Anatone, WA (99401)

1:13 AM PDT on September 04, 2015 (GMT -0700)
Montgomery Ridge Road | | Change Station
CLOSE
Current Station
Personal Weather Station
Location: Anatone, WA
Elevation: 3300 ft
Nearby Weather Stations

Elev 3300 ft 46.12 °N, 117.01 °W | Updated 1 minute ago

Clear
Clear
45.9 °F
Feels Like 42 °F
N
6.9
Wind Variable Wind from SSE
Gusts 6.9 mph

Today
High -- | Low -- °F
--% Chance of Precip.
Yesterday
High -- | Low -- °F
Precip. -- in
6:12 AM 7:21 PM
Waning Gibbous, 62% visible
Pressure 29.94 in
Visibility 10.0 miles
Clouds Clear
Windchill 42 °F
Dew Point -6 °F
Humidity 11%
Rainfall 0.00 in
Snow Depth Not available.
UV 0 out of 12
Pollen 6.80 out of 12
Air Quality Not available.
Flu Activity Not available.
METAR KLWS 040756Z AUTO 13004KT 10SM CLR 09/04 A2994 RMK AO2 SLP139 T00890044 401940083
Pressure 29.94 in
Visibility 10.0 miles
Clouds Clear
Windchill 42 °F
Dew Point -6 °F
Humidity 11%
Rainfall 0.00 in
Snow Depth Not available.
UV 0 out of 12
Pollen 6.80 out of 12
Air Quality Not available.
Flu Activity Not available.
METAR KLWS 040756Z AUTO 13004KT 10SM CLR 09/04 A2994 RMK AO2 SLP139 T00890044 401940083

10-Day Weather Forecast

×

Almanac

Astronomy

Sep. 04, 2015 Rise Set
Actual Time
Civil Twilight
Nautical Twilight
Astronomical Twilight
Moon
Length of Visible Light
Length of Day
Tomorrow will be .
, % of the Moon is Illuminated

Today's Extremes

State Highs State Lows

Community

WunderPhotos

Upload Photos

1,852,141 photos uploaded!

WunderBlogs® & News

Nearby

Air Quality

  Air Quality AQ Index Pollutant
Not available.

Snow Depth

Station Depth Elevation

Earthquake Activity

City Distance Mag. Time & Date
Minimum magnitude displayed is 2.5.

Coastal Water Temperatures

Place Temperature

Stations

Nearby Weather Stations

Station Location Temp. Windchill Dew Point Humidity Wind Precip. Elev Updated Type